createdAt,value
2022-09-02T00:00:53.745Z,99705.73
2022-09-02T00:01:56.529Z,99705.91
2022-09-02T00:02:59.603Z,99708.55
2022-09-02T00:04:02.358Z,99708.02
2022-09-02T00:05:04.987Z,99707.33
2022-09-02T00:06:08.000Z,99711.95
2022-09-02T00:07:10.531Z,99708.77
2022-09-02T00:08:13.132Z,99710.05
2022-09-02T00:09:15.704Z,99707.84
2022-09-02T00:10:18.677Z,99706.34
2022-09-02T00:11:21.245Z,99707.45
2022-09-02T00:12:24.285Z,99699.17
2022-09-02T00:13:26.893Z,99702.92
2022-09-02T00:14:29.566Z,99698.91
2022-09-02T00:15:32.266Z,99699.21
2022-09-02T00:16:35.718Z,99705.47
2022-09-02T00:17:38.596Z,99700.79
2022-09-02T00:18:44.964Z,99706.50
2022-09-02T00:19:47.524Z,99704.17
2022-09-02T00:20:50.286Z,99711.55
2022-09-02T00:21:53.222Z,99714.62
2022-09-02T00:22:55.934Z,99720.07
2022-09-02T00:23:58.498Z,99716.43
2022-09-02T00:25:01.170Z,99712.28
2022-09-02T00:26:04.207Z,99724.11
2022-09-02T00:27:06.813Z,99718.30
2022-09-02T00:28:09.349Z,99731.63
2022-09-02T00:29:11.942Z,99726.52
2022-09-02T00:30:16.155Z,99726.64
2022-09-02T00:31:19.121Z,99733.06
2022-09-02T00:32:21.761Z,99728.88
2022-09-02T00:33:24.322Z,99729.05
2022-09-02T00:34:26.936Z,99728.34
2022-09-02T00:35:29.608Z,99730.17
2022-09-02T00:36:32.785Z,99739.19
2022-09-02T00:37:35.350Z,99735.88
2022-09-02T00:38:37.800Z,99733.38
2022-09-02T00:39:40.690Z,99741.29
2022-09-02T00:40:43.566Z,99737.98
2022-09-02T00:41:47.099Z,99741.45
2022-09-02T00:42:49.717Z,99735.34
2022-09-02T00:43:52.284Z,99733.96
2022-09-02T00:44:54.952Z,99744.52
2022-09-02T00:45:57.625Z,99743.68
2022-09-02T00:47:00.705Z,99753.27
2022-09-02T00:48:03.269Z,99760.34
2022-09-02T00:49:05.766Z,99748.41
2022-09-02T00:50:08.915Z,99748.55
2022-09-02T00:51:11.599Z,99752.98
2022-09-02T00:52:14.212Z,99748.70
2022-09-02T00:53:16.821Z,99745.06
2022-09-02T00:54:19.389Z,99749.52
2022-09-02T00:55:22.057Z,99746.74
2022-09-02T00:56:25.653Z,99747.88
2022-09-02T00:57:28.217Z,99755.92
2022-09-02T00:58:30.669Z,99755.08
2022-09-02T00:59:33.271Z,99752.31
2022-09-02T01:00:36.401Z,99756.63
2022-09-02T01:01:39.755Z,99753.15
2022-09-02T01:02:42.798Z,99754.11
2022-09-02T01:03:45.502Z,99760.36
2022-09-02T01:04:48.090Z,99751.60
2022-09-02T01:05:50.701Z,99748.30
2022-09-02T01:06:53.572Z,99752.98
2022-09-02T01:07:56.345Z,99741.34
2022-09-02T01:08:58.937Z,99747.45
2022-09-02T01:10:01.585Z,99751.19
2022-09-02T01:11:04.252Z,99743.27
2022-09-02T01:12:08.782Z,99738.16
2022-09-02T01:13:11.438Z,99740.09
2022-09-02T01:14:14.106Z,99749.13
2022-09-02T01:15:16.626Z,99753.28
2022-09-02T01:16:20.995Z,99754.24
2022-09-02T01:17:23.952Z,99751.77
2022-09-02T01:18:26.621Z,99764.13
2022-09-02T01:19:29.188Z,99764.96
2022-09-02T01:20:32.258Z,99762.61
2022-09-02T01:21:34.895Z,99768.98
2022-09-02T01:22:37.494Z,99759.39
2022-09-02T01:23:40.300Z,99766.50
2022-09-02T01:24:42.946Z,99773.58
2022-09-02T01:25:45.932Z,99769.95
2022-09-02T01:26:48.898Z,99777.31
2022-09-02T01:27:51.556Z,99774.55
2022-09-02T01:28:54.133Z,99770.63
2022-09-02T01:29:56.756Z,99778.70
2022-09-02T01:30:59.466Z,99777.02
2022-09-02T01:32:02.034Z,99782.30
2022-09-02T01:33:04.710Z,99777.98
2022-09-02T01:34:07.373Z,99783.55
2022-09-02T01:35:10.046Z,99782.72
2022-09-02T01:36:13.251Z,99782.03
2022-09-02T01:37:15.794Z,99784.80
2022-09-02T01:38:18.352Z,99780.52
2022-09-02T01:39:20.928Z,99796.47
2022-09-02T01:40:24.022Z,99788.56
2022-09-02T01:41:26.886Z,99791.48
2022-09-02T01:42:29.847Z,99792.58
2022-09-02T01:43:32.521Z,99792.73
2022-09-02T01:44:35.202Z,99790.38
2022-09-02T01:45:37.867Z,99793.98
2022-09-02T01:46:40.911Z,99788.16
2022-09-02T01:47:43.739Z,99798.83
2022-09-02T01:48:46.336Z,99803.27
2022-09-02T01:49:48.962Z,99807.02
2022-09-02T01:50:51.823Z,99810.34
2022-09-02T01:51:54.451Z,99813.13
2022-09-02T01:52:59.001Z,99809.78
2022-09-02T01:54:01.675Z,99810.63
2022-09-02T01:55:04.242Z,99808.14
2022-09-02T01:56:07.217Z,99806.47
2022-09-02T01:57:09.666Z,99807.43
2022-09-02T01:58:12.256Z,99815.34
2022-09-02T01:59:14.975Z,99815.34
2022-09-02T02:00:18.721Z,99816.17
2022-09-02T02:01:21.626Z,99817.14
2022-09-02T02:02:24.652Z,99813.82
2022-09-02T02:03:27.528Z,99819.93
2022-09-02T02:04:31.438Z,99814.10
2022-09-02T02:05:34.000Z,99815.19
2022-09-02T02:06:37.090Z,99816.98
2022-09-02T02:07:39.751Z,99818.81
2022-09-02T02:08:42.322Z,99816.18
2022-09-02T02:09:44.992Z,99817.98
2022-09-02T02:10:48.078Z,99819.63
2022-09-02T02:11:50.734Z,99817.98
2022-09-02T02:12:53.313Z,99821.45
2022-09-02T02:13:56.018Z,99822.54
2022-09-02T02:14:58.601Z,99826.13
2022-09-02T02:16:01.898Z,99830.73
2022-09-02T02:17:04.659Z,99823.66
2022-09-02T02:18:07.305Z,99824.62
2022-09-02T02:19:09.985Z,99824.77
2022-09-02T02:20:13.380Z,99826.42
2022-09-02T02:21:15.949Z,99823.94
2022-09-02T02:22:19.271Z,99831.97
2022-09-02T02:23:22.356Z,99828.49
2022-09-02T02:24:25.226Z,99829.45
2022-09-02T02:25:27.787Z,99826.82
2022-09-02T02:26:32.161Z,99823.50
2022-09-02T02:27:34.707Z,99831.41
2022-09-02T02:28:37.335Z,99829.73
2022-09-02T02:29:39.838Z,99833.20
2022-09-02T02:30:42.565Z,99830.13
2022-09-02T02:31:45.301Z,99829.45
2022-09-02T02:32:48.110Z,99840.11
2022-09-02T02:33:50.679Z,99832.20
2022-09-02T02:34:53.251Z,99842.75
2022-09-02T02:35:55.920Z,99843.86
2022-09-02T02:36:58.815Z,99838.71
2022-09-02T02:38:03.987Z,99838.99
2022-09-02T02:39:06.178Z,99839.98
2022-09-02T02:40:09.332Z,99849.80
2022-09-02T02:41:12.235Z,99848.97
2022-09-02T02:42:15.214Z,99848.84
2022-09-02T02:43:18.232Z,99852.72
2022-09-02T02:44:20.861Z,99852.72
2022-09-02T02:45:23.527Z,99851.88
2022-09-02T02:46:26.584Z,99849.36
2022-09-02T02:47:29.483Z,99855.47
2022-09-02T02:48:32.047Z,99853.67
2022-09-02T02:49:34.611Z,99857.14
2022-09-02T02:50:37.482Z,99856.30
2022-09-02T02:51:40.111Z,99858.11
2022-09-02T02:52:42.722Z,99858.26
2022-09-02T02:53:45.394Z,99855.63
2022-09-02T02:54:47.924Z,99852.98
2022-09-02T02:55:51.395Z,99851.19
2022-09-02T02:56:54.731Z,99856.58
2022-09-02T02:57:57.401Z,99854.91
2022-09-02T02:59:00.405Z,99858.26
2022-09-02T03:00:03.243Z,99860.05
2022-09-02T03:01:05.873Z,99859.09
2022-09-02T03:02:08.720Z,99863.52
2022-09-02T03:03:12.049Z,99861.85
2022-09-02T03:04:14.912Z,99862.69
2022-09-02T03:05:17.588Z,99867.00
2022-09-02T03:06:26.692Z,99867.80
2022-09-02T03:07:26.681Z,99871.28
2022-09-02T03:08:29.306Z,99870.20
2022-09-02T03:09:31.815Z,99873.63
2022-09-02T03:10:34.548Z,99874.47
2022-09-02T03:11:37.277Z,99864.66
2022-09-02T03:12:39.788Z,99876.87
2022-09-02T03:13:42.457Z,99875.88
2022-09-02T03:14:45.026Z,99873.12
2022-09-02T03:15:47.818Z,99876.32
2022-09-02T03:16:50.978Z,99876.04
2022-09-02T03:17:53.746Z,99882.15
2022-09-02T03:18:56.683Z,99877.72
2022-09-02T03:19:59.283Z,99881.88
2022-09-02T03:21:02.273Z,99884.39
2022-09-02T03:22:04.938Z,99883.43
2022-09-02T03:23:07.611Z,99887.70
2022-09-02T03:24:10.379Z,99886.63
2022-09-02T03:25:13.038Z,99885.52
2022-09-02T03:26:18.895Z,99883.72
2022-09-02T03:27:21.960Z,99887.59
2022-09-02T03:28:24.529Z,99899.85
2022-09-02T03:29:27.202Z,99903.48
2022-09-02T03:30:30.382Z,99896.44
2022-09-02T03:31:32.989Z,99894.51
2022-09-02T03:32:35.627Z,99900.73
2022-09-02T03:33:38.194Z,99900.72
2022-09-02T03:34:40.809Z,99897.20
2022-09-02T03:35:43.429Z,99894.66
2022-09-02T03:36:46.259Z,99906.69
2022-09-02T03:37:49.066Z,99897.07
2022-09-02T03:38:51.644Z,99901.25
2022-09-02T03:39:54.308Z,99902.05
2022-09-02T03:40:57.549Z,99896.77
2022-09-02T03:42:00.175Z,99897.23
2022-09-02T03:43:03.951Z,99900.44
2022-09-02T03:44:06.517Z,99901.57
2022-09-02T03:45:09.183Z,99900.86
2022-09-02T03:46:12.241Z,99914.38
2022-09-02T03:47:14.786Z,99903.97
2022-09-02T03:48:17.401Z,99916.34
2022-09-02T03:49:20.023Z,99915.20
2022-09-02T03:50:23.145Z,99919.52
2022-09-02T03:51:25.678Z,99922.84
2022-09-02T03:52:28.298Z,99912.98
2022-09-02T03:53:30.962Z,99920.61
2022-09-02T03:54:33.519Z,99916.00
2022-09-02T03:55:36.150Z,99918.38
2022-09-02T03:56:39.190Z,99925.84
2022-09-02T03:57:42.749Z,99927.39
2022-09-02T03:58:45.276Z,99928.59
2022-09-02T03:59:47.884Z,99929.30
2022-09-02T04:00:50.758Z,99929.55
2022-09-02T04:01:53.530Z,99926.47
2022-09-02T04:02:56.482Z,99931.32
2022-09-02T04:03:59.381Z,99936.14
2022-09-02T04:05:01.949Z,99930.29
2022-09-02T04:06:05.186Z,99929.98
2022-09-02T04:07:07.730Z,99936.55
2022-09-02T04:08:10.360Z,99936.91
2022-09-02T04:09:12.816Z,99940.09
2022-09-02T04:10:16.317Z,99942.17
2022-09-02T04:11:18.992Z,99938.08
2022-09-02T04:12:21.551Z,99943.77
2022-09-02T04:13:26.028Z,99952.10
2022-09-02T04:14:28.633Z,99951.80
2022-09-02T04:15:31.321Z,99947.87
2022-09-02T04:16:34.320Z,99943.77
2022-09-02T04:17:37.111Z,99946.95
2022-09-02T04:18:39.687Z,99943.86
2022-09-02T04:19:42.297Z,99939.62
2022-09-02T04:20:45.163Z,99945.97
2022-09-02T04:21:47.891Z,99945.21
2022-09-02T04:22:50.506Z,99953.09
2022-09-02T04:23:53.175Z,99952.99
2022-09-02T04:24:55.745Z,99955.88
2022-09-02T04:25:58.272Z,99947.45
2022-09-02T04:27:04.218Z,99955.46
2022-09-02T04:28:05.692Z,99961.00
2022-09-02T04:29:08.232Z,99956.42
2022-09-02T04:30:11.951Z,99952.71
2022-09-02T04:31:14.668Z,99964.67
2022-09-02T04:32:17.593Z,99957.92
2022-09-02T04:33:20.120Z,99951.32
2022-09-02T04:34:22.990Z,99955.52
2022-09-02T04:35:25.704Z,99953.06
2022-09-02T04:36:29.069Z,99955.76
2022-09-02T04:37:33.290Z,99955.43
2022-09-02T04:38:35.778Z,99951.98
2022-09-02T04:39:38.325Z,99955.66
2022-09-02T04:40:41.155Z,99949.88
2022-09-02T04:41:43.726Z,99956.38
2022-09-02T04:42:46.396Z,99954.75
2022-09-02T04:43:49.000Z,99956.41
2022-09-02T04:44:51.935Z,99958.11
2022-09-02T04:45:54.574Z,99961.13
2022-09-02T04:46:57.452Z,99961.80
2022-09-02T04:48:00.105Z,99962.47
2022-09-02T04:49:02.718Z,99969.17
2022-09-02T04:50:05.634Z,99954.58
2022-09-02T04:51:08.295Z,99965.87
2022-09-02T04:52:10.801Z,99967.05
2022-09-02T04:53:13.443Z,99963.06
2022-09-02T04:54:16.146Z,99967.55
2022-09-02T04:55:18.733Z,99962.05
2022-09-02T04:56:22.285Z,99966.87
2022-09-02T04:57:24.933Z,99962.87
2022-09-02T04:58:27.501Z,99965.69
2022-09-02T04:59:30.127Z,99965.19
2022-09-02T05:00:33.965Z,99964.34
2022-09-02T05:01:37.349Z,99964.17
2022-09-02T05:02:40.405Z,99966.79
2022-09-02T05:03:43.201Z,99962.63
2022-09-02T05:04:45.726Z,99965.95
2022-09-02T05:05:48.454Z,99967.75
2022-09-02T05:06:51.518Z,99962.41
2022-09-02T05:07:54.288Z,99972.38
2022-09-02T05:08:57.158Z,99970.36
2022-09-02T05:09:59.762Z,99972.48
2022-09-02T05:11:02.431Z,99970.42
2022-09-02T05:12:05.180Z,99976.36
2022-09-02T05:13:07.737Z,99974.69
2022-09-02T05:14:10.406Z,99972.78
2022-09-02T05:15:12.970Z,99983.23
2022-09-02T05:16:15.900Z,99975.35
2022-09-02T05:17:18.520Z,99976.13
2022-09-02T05:18:21.185Z,99977.80
2022-09-02T05:19:23.746Z,99980.94
2022-09-02T05:20:26.834Z,99974.50
2022-09-02T05:21:29.503Z,99978.04
2022-09-02T05:22:32.171Z,99980.74
2022-09-02T05:23:34.693Z,99982.80
2022-09-02T05:24:38.177Z,99991.37
2022-09-02T05:25:40.682Z,99983.38
2022-09-02T05:26:43.468Z,99989.47
2022-09-02T05:27:46.430Z,99991.42
2022-09-02T05:28:48.963Z,99994.37
2022-09-02T05:29:51.570Z,100001.39
2022-09-02T05:30:54.467Z,99997.72
2022-09-02T05:31:57.451Z,99997.25
2022-09-02T05:33:00.049Z,100001.75
2022-09-02T05:34:02.658Z,99996.69
2022-09-02T05:35:05.318Z,100004.22
2022-09-02T05:36:08.299Z,100004.65
2022-09-02T05:37:10.866Z,100001.38
2022-09-02T05:38:13.740Z,100001.71
2022-09-02T05:39:16.415Z,99999.78
2022-09-02T05:40:22.555Z,100001.69
2022-09-02T05:41:24.104Z,99997.67
2022-09-02T05:42:26.878Z,99999.98
2022-09-02T05:43:29.441Z,99999.39
2022-09-02T05:44:32.013Z,100009.57
2022-09-02T05:45:34.573Z,100012.55
2022-09-02T05:46:37.453Z,100010.53
2022-09-02T05:47:40.115Z,100009.31
2022-09-02T05:48:42.602Z,100019.18
2022-09-02T05:49:45.154Z,100012.77
2022-09-02T05:50:50.295Z,100010.84
2022-09-02T05:51:52.437Z,100012.84
2022-09-02T05:52:55.000Z,100022.01
2022-09-02T05:53:57.567Z,100022.66
2022-09-02T05:55:00.151Z,100030.48
2022-09-02T05:56:03.144Z,100022.84
2022-09-02T05:57:05.677Z,100018.95
2022-09-02T05:58:08.202Z,100024.38
2022-09-02T05:59:10.825Z,100020.75
2022-09-02T06:00:17.800Z,100022.81
2022-09-02T06:01:18.918Z,100024.35
2022-09-02T06:02:21.816Z,100027.72
2022-09-02T06:03:24.707Z,100023.78
2022-09-02T06:04:27.517Z,100027.34
2022-09-02T06:05:30.249Z,100027.47
2022-09-02T06:06:34.209Z,100027.95
2022-09-02T06:07:36.878Z,100028.06
2022-09-02T06:08:39.466Z,100033.09
2022-09-02T06:09:42.019Z,100035.23
2022-09-02T06:10:45.131Z,100028.71
2022-09-02T06:11:47.863Z,100039.86
2022-09-02T06:12:50.529Z,100041.13
2022-09-02T06:13:53.245Z,100043.41
2022-09-02T06:14:55.874Z,100042.57
2022-09-02T06:15:58.492Z,100040.14
2022-09-02T06:17:01.722Z,100040.57
2022-09-02T06:18:04.291Z,100040.01
2022-09-02T06:19:08.292Z,100038.43
2022-09-02T06:20:12.184Z,100038.86
2022-09-02T06:21:15.062Z,100040.70
2022-09-02T06:22:17.594Z,100047.75
2022-09-02T06:23:20.327Z,100044.10
2022-09-02T06:24:30.271Z,100044.77
2022-09-02T06:25:31.914Z,100044.77
2022-09-02T06:26:35.270Z,100045.20
2022-09-02T06:27:38.043Z,100052.99
2022-09-02T06:28:40.666Z,100052.70
2022-09-02T06:29:43.133Z,100051.69
2022-09-02T06:30:45.992Z,100054.66
2022-09-02T06:31:48.618Z,100050.36
2022-09-02T06:32:51.161Z,100047.27
2022-09-02T06:33:53.696Z,100060.91
2022-09-02T06:34:56.319Z,100056.98
2022-09-02T06:35:58.881Z,100051.56
2022-09-02T06:37:01.961Z,100058.78
2022-09-02T06:38:05.510Z,100048.93
2022-09-02T06:39:08.122Z,100055.14
2022-09-02T06:40:11.226Z,100061.52
2022-09-02T06:41:14.178Z,100052.23
2022-09-02T06:42:16.846Z,100059.70
2022-09-02T06:43:19.524Z,100057.47
2022-09-02T06:44:22.203Z,100056.88
2022-09-02T06:45:24.751Z,100058.77
2022-09-02T06:46:28.212Z,100060.45
2022-09-02T06:47:31.112Z,100056.93
2022-09-02T06:48:33.886Z,100053.03
2022-09-02T06:49:36.463Z,100058.18
2022-09-02T06:50:39.738Z,100060.25
2022-09-02T06:51:42.316Z,100054.69
2022-09-02T06:52:44.920Z,100061.08
2022-09-02T06:53:48.221Z,100053.63
2022-09-02T06:54:50.787Z,100061.06
2022-09-02T06:55:53.391Z,100068.50
2022-09-02T06:56:56.356Z,100054.69
2022-09-02T06:57:59.128Z,100054.47
2022-09-02T06:59:01.656Z,100057.76
2022-09-02T07:00:04.723Z,100053.64
2022-09-02T07:01:07.465Z,100053.02
2022-09-02T07:02:10.889Z,100046.39
2022-09-02T07:03:14.001Z,100051.15
2022-09-02T07:04:16.951Z,100048.48
2022-09-02T07:05:19.561Z,100049.05
2022-09-02T07:06:23.154Z,100051.13
2022-09-02T07:07:25.810Z,100053.63
2022-09-02T07:08:28.397Z,100050.73
2022-09-02T07:09:31.156Z,100050.34
2022-09-02T07:10:35.162Z,100051.77
2022-09-02T07:11:37.755Z,100054.03
2022-09-02T07:12:40.398Z,100053.61
2022-09-02T07:13:44.911Z,100052.58
2022-09-02T07:14:47.582Z,100056.89
2022-09-02T07:15:50.249Z,100063.92
2022-09-02T07:16:53.251Z,100059.33
2022-09-02T07:17:55.917Z,100055.59
2022-09-02T07:18:58.558Z,100055.59
2022-09-02T07:20:01.131Z,100061.77
2022-09-02T07:21:03.998Z,100057.02
2022-09-02T07:22:08.759Z,100061.53
2022-09-02T07:23:11.550Z,100070.98
2022-09-02T07:24:14.159Z,100062.63
2022-09-02T07:25:16.787Z,100066.63
2022-09-02T07:26:20.016Z,100073.67
2022-09-02T07:27:22.914Z,100072.48
2022-09-02T07:28:25.512Z,100070.06
2022-09-02T07:29:28.059Z,100077.13
2022-09-02T07:30:31.108Z,100077.97
2022-09-02T07:31:33.772Z,100080.87
2022-09-02T07:32:36.435Z,100081.94
2022-09-02T07:33:39.103Z,100078.43
2022-09-02T07:34:41.751Z,100075.94
2022-09-02T07:35:44.296Z,100073.48
2022-09-02T07:36:47.318Z,100069.55
2022-09-02T07:37:49.986Z,100060.67
2022-09-02T07:38:52.654Z,100072.65
2022-09-02T07:39:55.332Z,100066.23
2022-09-02T07:40:58.298Z,100071.38
2022-09-02T07:42:00.963Z,100072.44
2022-09-02T07:43:03.546Z,100071.00
2022-09-02T07:44:06.163Z,100079.68
2022-09-02T07:45:08.770Z,100074.29
2022-09-02T07:46:12.294Z,100075.52
2022-09-02T07:47:15.234Z,100071.39
2022-09-02T07:48:17.806Z,100084.60
2022-09-02T07:49:23.989Z,100073.87
2022-09-02T07:50:25.399Z,100077.77
2022-09-02T07:51:31.101Z,100081.70
2022-09-02T07:52:32.595Z,100073.20
2022-09-02T07:53:35.245Z,100074.41
2022-09-02T07:54:37.790Z,100067.50
2022-09-02T07:55:40.375Z,100073.91
2022-09-02T07:56:43.519Z,100077.79
2022-09-02T07:57:47.772Z,100063.07
2022-09-02T07:58:50.449Z,100074.02
2022-09-02T07:59:53.723Z,100063.87
2022-09-02T08:00:56.765Z,100066.73
2022-09-02T08:01:59.699Z,100067.99
2022-09-02T08:03:04.006Z,100064.03
2022-09-02T08:04:06.855Z,100065.89
2022-09-02T08:05:09.829Z,100067.25
2022-09-02T08:06:13.724Z,100063.86
2022-09-02T08:07:16.398Z,100056.17
2022-09-02T08:08:18.972Z,100057.75
2022-09-02T08:09:21.734Z,100057.24
2022-09-02T08:10:26.003Z,100057.30
2022-09-02T08:11:28.612Z,100058.58
2022-09-02T08:12:31.282Z,100052.56
2022-09-02T08:13:33.908Z,100064.61
2022-09-02T08:14:36.616Z,100051.80
2022-09-02T08:15:39.554Z,100059.75
2022-09-02T08:16:42.627Z,100060.24
2022-09-02T08:17:45.551Z,100059.02
2022-09-02T08:18:48.226Z,100065.89
2022-09-02T08:19:50.781Z,100064.09
2022-09-02T08:20:53.549Z,100060.22
2022-09-02T08:21:56.128Z,100052.16
2022-09-02T08:23:10.736Z,100060.06
2022-09-02T08:24:03.413Z,100064.58
2022-09-02T08:25:06.032Z,100066.16
2022-09-02T08:26:09.668Z,100057.43
2022-09-02T08:27:12.224Z,100060.88
2022-09-02T08:28:14.906Z,100060.84
2022-09-02T08:29:17.568Z,100055.63
2022-09-02T08:30:21.974Z,100067.90
2022-09-02T08:31:24.571Z,100061.53
2022-09-02T08:32:27.520Z,100070.10
2022-09-02T08:33:30.089Z,100064.78
2022-09-02T08:34:32.661Z,100065.98
2022-09-02T08:35:35.341Z,100078.02
2022-09-02T08:36:38.464Z,100068.44
2022-09-02T08:37:41.036Z,100064.08
2022-09-02T08:38:43.946Z,100061.77
2022-09-02T08:39:46.514Z,100054.05
2022-09-02T08:40:49.457Z,100043.05
2022-09-02T08:41:52.197Z,100052.72
2022-09-02T08:42:54.826Z,100046.40
2022-09-02T08:43:57.497Z,100048.27
2022-09-02T08:45:00.106Z,100049.72
2022-09-02T08:46:02.977Z,100048.16
2022-09-02T08:47:06.114Z,100040.18
2022-09-02T08:48:08.727Z,100044.79
2022-09-02T08:49:11.765Z,100051.78
2022-09-02T08:50:15.666Z,100043.31
2022-09-02T08:51:18.337Z,100041.82
2022-09-02T08:52:21.003Z,100034.19
2022-09-02T08:53:23.694Z,100031.95
2022-09-02T08:54:26.644Z,100041.73
2022-09-02T08:55:29.318Z,100045.09
2022-09-02T08:56:32.601Z,100044.13
2022-09-02T08:57:35.269Z,100045.06
2022-09-02T08:58:39.740Z,100049.08
2022-09-02T08:59:42.309Z,100044.39
2022-09-02T09:00:45.167Z,100051.36
2022-09-02T09:01:48.486Z,100043.83
2022-09-02T09:02:51.779Z,100041.13
2022-09-02T09:03:54.566Z,100038.32
2022-09-02T09:04:57.229Z,100040.02
2022-09-02T09:05:59.897Z,100049.42
2022-09-02T09:07:02.604Z,100039.16
2022-09-02T09:08:05.291Z,100044.81
2022-09-02T09:09:08.172Z,100050.80
2022-09-02T09:10:11.254Z,100051.84
2022-09-02T09:11:13.872Z,100043.38
2022-09-02T09:12:16.537Z,100048.09
2022-09-02T09:13:19.210Z,100050.94
2022-09-02T09:14:21.872Z,100045.67
2022-09-02T09:15:24.714Z,100044.84
2022-09-02T09:16:27.734Z,100035.45
2022-09-02T09:17:32.230Z,100042.73
2022-09-02T09:18:35.204Z,100041.59
2022-09-02T09:19:37.873Z,100044.08
2022-09-02T09:20:40.698Z,100040.55
2022-09-02T09:21:43.321Z,100043.23
2022-09-02T09:22:45.919Z,100039.57
2022-09-02T09:23:48.591Z,100040.52
2022-09-02T09:24:51.386Z,100043.22
2022-09-02T09:25:54.189Z,100050.17
2022-09-02T09:26:57.226Z,100052.88
2022-09-02T09:28:00.043Z,100045.30
2022-09-02T09:29:02.646Z,100046.96
2022-09-02T09:30:06.008Z,100046.70
2022-09-02T09:31:11.329Z,100046.86
2022-09-02T09:32:14.018Z,100050.27
2022-09-02T09:33:16.702Z,100050.03
2022-09-02T09:34:19.212Z,100049.20
2022-09-02T09:35:21.813Z,100052.27
2022-09-02T09:36:25.195Z,100051.92
2022-09-02T09:37:29.209Z,100045.61
2022-09-02T09:38:32.298Z,100048.53
2022-09-02T09:39:34.840Z,100046.65
2022-09-02T09:40:37.608Z,100044.14
2022-09-02T09:41:40.688Z,100047.39
2022-09-02T09:42:47.855Z,100048.17
2022-09-02T09:43:47.775Z,100043.14
2022-09-02T09:44:50.534Z,100045.35
2022-09-02T09:45:53.162Z,100039.86
2022-09-02T09:46:56.395Z,100038.03
2022-09-02T09:47:59.022Z,100041.92
2022-09-02T09:49:02.042Z,100039.55
2022-09-02T09:50:05.045Z,100043.22
2022-09-02T09:51:07.581Z,100049.64
2022-09-02T09:52:10.193Z,100045.43
2022-09-02T09:53:12.719Z,100036.63
2022-09-02T09:54:15.350Z,100044.27
2022-09-02T09:55:20.950Z,100046.10
2022-09-02T09:56:24.110Z,100042.16
2022-09-02T09:57:26.866Z,100035.22
2022-09-02T09:58:31.288Z,100040.80
2022-09-02T09:59:33.850Z,100039.72
2022-09-02T10:00:38.350Z,100044.44
2022-09-02T10:01:41.114Z,100039.91
2022-09-02T10:02:43.848Z,100045.19
2022-09-02T10:03:46.735Z,100040.09
2022-09-02T10:04:49.301Z,100037.70
2022-09-02T10:05:51.914Z,100046.39
2022-09-02T10:06:54.792Z,100053.87
2022-09-02T10:07:57.349Z,100046.05
2022-09-02T10:09:01.312Z,100047.62
2022-09-02T10:10:04.333Z,100048.73
2022-09-02T10:11:07.006Z,100055.59
2022-09-02T10:12:09.664Z,100045.38
2022-09-02T10:13:12.328Z,100053.45
2022-09-02T10:14:15.067Z,100050.98
2022-09-02T10:15:17.674Z,100051.25
2022-09-02T10:16:24.889Z,100048.36
2022-09-02T10:17:26.597Z,100057.82
2022-09-02T10:18:29.469Z,100049.66
2022-09-02T10:19:32.038Z,100056.04
2022-09-02T10:20:35.013Z,100059.41
2022-09-02T10:21:40.838Z,100061.73
2022-09-02T10:22:59.691Z,100055.20
2022-09-02T10:23:47.324Z,100055.11
2022-09-02T10:24:49.889Z,100052.31
2022-09-02T10:25:52.557Z,100048.03
2022-09-02T10:26:55.600Z,100056.18
2022-09-02T10:27:58.206Z,100053.09
2022-09-02T10:29:04.162Z,100057.18
2022-09-02T10:30:07.030Z,100054.37
2022-09-02T10:31:09.750Z,100059.80
2022-09-02T10:32:12.732Z,100050.09
2022-09-02T10:33:15.398Z,100061.17
2022-09-02T10:34:18.028Z,100058.33
2022-09-02T10:35:20.579Z,100054.06
2022-09-02T10:36:25.349Z,100051.27
2022-09-02T10:37:27.817Z,100057.59
2022-09-02T10:38:30.423Z,100054.88
2022-09-02T10:39:33.198Z,100059.72
2022-09-02T10:40:35.883Z,100060.05
2022-09-02T10:41:38.590Z,100060.87
2022-09-02T10:42:41.822Z,100063.75
2022-09-02T10:43:44.389Z,100057.95
2022-09-02T10:44:47.013Z,100060.87
2022-09-02T10:45:49.622Z,100058.83
2022-09-02T10:46:52.892Z,100054.62
2022-09-02T10:47:55.783Z,100049.62
2022-09-02T10:48:58.427Z,100048.94
2022-09-02T10:50:01.019Z,100046.22
2022-09-02T10:51:03.587Z,100047.69
2022-09-02T10:52:06.288Z,100052.77
2022-09-02T10:53:09.648Z,100041.28
2022-09-02T10:54:12.462Z,100037.20
2022-09-02T10:55:15.182Z,100042.90
2022-09-02T10:56:19.285Z,100039.81
2022-09-02T10:57:21.958Z,100043.30
2022-09-02T10:58:24.935Z,100046.39
2022-09-02T10:59:27.604Z,100039.91
2022-09-02T11:00:30.633Z,100043.06
2022-09-02T11:01:33.518Z,100039.32
2022-09-02T11:02:36.116Z,100043.84
2022-09-02T11:03:38.704Z,100047.05
2022-09-02T11:04:43.198Z,100044.17
2022-09-02T11:05:45.868Z,100052.95
2022-09-02T11:07:04.085Z,100044.44
2022-09-02T11:07:53.258Z,100045.82
2022-09-02T11:08:55.923Z,100044.67
2022-09-02T11:09:58.496Z,100039.75
2022-09-02T11:11:01.884Z,100040.37
2022-09-02T11:12:04.440Z,100040.14
2022-09-02T11:13:07.015Z,100036.63
2022-09-02T11:14:10.905Z,100046.59
2022-09-02T11:15:15.352Z,100047.42
2022-09-02T11:16:19.985Z,100042.14
2022-09-02T11:17:22.814Z,100034.66
2022-09-02T11:18:26.756Z,100031.73
2022-09-02T11:19:29.686Z,100029.34
2022-09-02T11:20:32.967Z,100024.28
2022-09-02T11:21:35.946Z,100034.03
2022-09-02T11:22:38.966Z,100027.42
2022-09-02T11:23:41.593Z,100035.22
2022-09-02T11:24:46.593Z,100033.69
2022-09-02T11:25:49.389Z,100036.22
2022-09-02T11:26:52.337Z,100042.29
2022-09-02T11:27:54.941Z,100043.18
2022-09-02T11:28:57.593Z,100038.39
2022-09-02T11:30:00.985Z,100040.17
2022-09-02T11:31:03.652Z,100041.47
2022-09-02T11:32:07.244Z,100042.10
2022-09-02T11:33:09.811Z,100038.31
2022-09-02T11:34:12.380Z,100038.45
2022-09-02T11:35:15.083Z,100037.05
2022-09-02T11:36:18.704Z,100030.38
2022-09-02T11:37:21.266Z,100034.80
2022-09-02T11:38:23.977Z,100031.48
2022-09-02T11:39:36.499Z,100034.89
2022-09-02T11:40:35.118Z,100042.16
2022-09-02T11:41:37.827Z,100031.00
2022-09-02T11:42:40.801Z,100041.51
2022-09-02T11:43:43.743Z,100023.93
2022-09-02T11:44:52.725Z,100031.27
2022-09-02T11:45:51.258Z,100036.86
2022-09-02T11:46:54.464Z,100034.25
2022-09-02T11:47:57.419Z,100028.73
2022-09-02T11:49:00.358Z,100037.88
2022-09-02T11:50:04.096Z,100041.62
2022-09-02T11:51:07.270Z,100038.09
2022-09-02T11:52:09.994Z,100037.92
2022-09-02T11:53:12.775Z,100036.04
2022-09-02T11:54:15.623Z,100035.71
2022-09-02T11:55:18.870Z,100035.31
2022-09-02T11:56:22.055Z,100033.02
2022-09-02T11:57:26.571Z,100032.01
2022-09-02T11:58:29.252Z,100036.50
2022-09-02T11:59:31.896Z,100030.72
2022-09-02T12:00:35.394Z,100030.39
2022-09-02T12:01:44.027Z,100036.55
2022-09-02T12:02:43.082Z,100028.23
2022-09-02T12:04:06.868Z,100037.59
2022-09-02T12:04:59.742Z,100035.78
2022-09-02T12:05:54.843Z,100034.39
2022-09-02T12:06:58.580Z,100034.63
2022-09-02T12:08:01.301Z,100035.29